createdAt,value
2019-03-31T00:02:37.984Z,9.70
2019-03-31T00:07:43.314Z,9.70
2019-03-31T00:12:48.262Z,9.60
2019-03-31T00:17:53.311Z,9.50
2019-03-31T00:22:58.051Z,9.30
2019-03-31T00:28:02.800Z,9.30
2019-03-31T00:33:07.947Z,9.20
2019-03-31T00:38:12.687Z,9.10
2019-03-31T00:43:17.839Z,9.00
2019-03-31T00:48:22.608Z,8.90
2019-03-31T00:53:27.321Z,8.80
2019-03-31T00:58:32.089Z,8.80
2019-03-31T01:03:37.139Z,8.80
2019-03-31T01:08:42.265Z,8.70
2019-03-31T01:13:47.544Z,8.70
2019-03-31T01:18:52.466Z,8.60
2019-03-31T01:23:57.309Z,8.50
2019-03-31T01:29:02.387Z,8.50
2019-03-31T01:34:07.741Z,8.40
2019-03-31T01:39:12.790Z,8.40
2019-03-31T01:44:17.813Z,8.30
2019-03-31T01:49:22.767Z,8.30
2019-03-31T01:54:28.322Z,8.20
2019-03-31T01:59:33.294Z,8.20
2019-03-31T02:04:38.426Z,8.10
2019-03-31T02:09:43.882Z,8.10
2019-03-31T02:14:48.722Z,8.10
2019-03-31T02:19:53.799Z,8.00
2019-03-31T02:24:59.026Z,8.00
2019-03-31T02:30:04.826Z,7.90
2019-03-31T02:35:10.150Z,7.80
2019-03-31T02:40:14.920Z,7.90
2019-03-31T02:45:19.966Z,8.00
2019-03-31T02:50:45.476Z,8.10
2019-03-31T02:55:50.910Z,8.20
2019-03-31T03:00:56.105Z,8.30
2019-03-31T03:06:01.337Z,8.40
2019-03-31T03:11:08.557Z,8.40
2019-03-31T03:16:18.510Z,8.50
2019-03-31T03:21:24.548Z,8.60
2019-03-31T03:26:30.143Z,8.70
2019-03-31T03:31:35.934Z,8.70
2019-03-31T03:36:43.639Z,8.80
2019-03-31T03:41:47.537Z,8.70
2019-03-31T03:46:52.504Z,8.30
2019-03-31T03:51:57.224Z,7.90
2019-03-31T03:57:02.076Z,7.60
2019-03-31T04:02:07.040Z,7.40
2019-03-31T04:07:11.728Z,7.20
2019-03-31T04:12:17.137Z,7.20
2019-03-31T04:17:21.853Z,7.20
2019-03-31T04:22:26.927Z,7.20
2019-03-31T04:27:31.671Z,7.20
2019-03-31T04:32:38.807Z,7.20
2019-03-31T04:37:44.147Z,7.10
2019-03-31T04:42:48.943Z,7.20
2019-03-31T04:47:53.713Z,7.30
2019-03-31T04:52:58.529Z,7.30
2019-03-31T04:58:03.499Z,7.40
2019-03-31T05:03:08.553Z,7.50
2019-03-31T05:08:13.266Z,7.70
2019-03-31T05:13:18.648Z,7.90
2019-03-31T05:18:23.465Z,8.10
2019-03-31T05:23:28.415Z,7.90
2019-03-31T05:28:33.379Z,8.00
2019-03-31T05:33:38.229Z,8.00
2019-03-31T05:38:43.060Z,8.00
2019-03-31T05:43:48.918Z,8.30
2019-03-31T05:48:53.662Z,8.50
2019-03-31T05:53:58.718Z,8.50
2019-03-31T05:59:03.475Z,8.50
2019-03-31T06:04:08.218Z,8.50
2019-03-31T06:09:12.934Z,8.50
2019-03-31T06:14:18.325Z,8.70
2019-03-31T06:19:23.035Z,9.00
2019-03-31T06:24:27.802Z,9.40
2019-03-31T06:29:32.541Z,9.50
2019-03-31T06:34:47.195Z,9.50
2019-03-31T06:39:43.847Z,9.60
2019-03-31T06:44:48.919Z,9.70
2019-03-31T06:49:53.971Z,9.80
2019-03-31T06:54:59.016Z,9.90
2019-03-31T07:00:05.080Z,10.00
2019-03-31T07:05:10.343Z,10.20
2019-03-31T07:10:15.085Z,10.20
2019-03-31T07:15:20.134Z,10.30
2019-03-31T07:20:24.864Z,10.40
2019-03-31T07:25:29.925Z,10.50
2019-03-31T07:30:34.977Z,10.60
2019-03-31T07:35:40.028Z,10.60
2019-03-31T07:40:44.801Z,10.80
2019-03-31T07:45:49.999Z,11.00
2019-03-31T07:50:54.745Z,11.10
2019-03-31T07:55:59.607Z,11.20
2019-03-31T08:01:04.532Z,11.20
2019-03-31T08:06:09.922Z,11.30
2019-03-31T08:11:17.112Z,11.40
2019-03-31T08:16:21.646Z,11.40
2019-03-31T08:21:26.390Z,11.30
2019-03-31T08:26:31.440Z,11.30
2019-03-31T08:31:36.257Z,11.40
2019-03-31T08:36:41.206Z,11.40
2019-03-31T08:41:46.253Z,11.60
2019-03-31T08:46:51.020Z,11.80
2019-03-31T08:51:55.740Z,12.10
2019-03-31T08:57:00.509Z,12.50
2019-03-31T09:02:24.600Z,12.20
2019-03-31T09:07:29.648Z,11.80
2019-03-31T09:12:34.367Z,11.90
2019-03-31T09:17:40.669Z,11.70
2019-03-31T09:22:45.725Z,12.40
2019-03-31T09:27:51.698Z,12.20
2019-03-31T09:32:56.434Z,12.00
2019-03-31T09:38:02.390Z,12.20
2019-03-31T09:43:07.659Z,12.10
2019-03-31T09:48:12.807Z,12.00
2019-03-31T09:53:17.856Z,12.10
2019-03-31T09:58:22.778Z,12.10
2019-03-31T10:03:27.627Z,12.30
2019-03-31T10:08:32.671Z,12.30
2019-03-31T10:13:37.745Z,12.30
2019-03-31T10:18:43.186Z,12.30
2019-03-31T10:23:48.378Z,12.60
2019-03-31T10:28:53.201Z,13.00
2019-03-31T10:33:58.029Z,13.00
2019-03-31T10:39:04.398Z,13.20
2019-03-31T10:44:09.270Z,13.00
2019-03-31T10:49:14.366Z,13.00
2019-03-31T10:54:19.146Z,13.00
2019-03-31T10:59:23.986Z,13.00
2019-03-31T11:04:28.722Z,13.20
2019-03-31T11:09:34.513Z,13.20
2019-03-31T11:14:39.564Z,13.30
2019-03-31T11:19:46.456Z,13.70
2019-03-31T11:24:51.506Z,13.70
2019-03-31T11:29:56.226Z,14.00
2019-03-31T11:35:01.298Z,14.20
2019-03-31T11:40:07.861Z,14.40
2019-03-31T11:45:15.062Z,14.50
2019-03-31T11:50:20.698Z,14.40
2019-03-31T11:55:25.490Z,14.20
2019-03-31T12:00:32.071Z,13.90
2019-03-31T12:05:38.019Z,13.60
2019-03-31T12:10:43.099Z,13.60
2019-03-31T12:15:49.370Z,13.20
2019-03-31T12:20:54.498Z,13.10
2019-03-31T12:25:59.469Z,13.40
2019-03-31T12:31:05.279Z,14.00
2019-03-31T12:36:10.078Z,14.00
2019-03-31T12:41:14.820Z,13.70
2019-03-31T12:46:20.098Z,13.60
2019-03-31T12:51:24.919Z,13.40
2019-03-31T12:56:29.594Z,13.80
2019-03-31T13:01:34.710Z,13.80
2019-03-31T13:06:39.758Z,13.80
2019-03-31T13:11:44.501Z,13.60
2019-03-31T13:16:49.551Z,13.60
2019-03-31T13:21:54.479Z,13.30
2019-03-31T13:26:59.219Z,13.40
2019-03-31T13:32:04.067Z,13.50
2019-03-31T13:37:09.147Z,13.70
2019-03-31T13:42:14.265Z,13.60
2019-03-31T13:47:18.967Z,13.40
2019-03-31T13:52:23.975Z,13.40
2019-03-31T13:57:30.065Z,13.30
2019-03-31T14:02:35.300Z,13.10
2019-03-31T14:07:40.042Z,13.00
2019-03-31T14:12:44.864Z,13.10
2019-03-31T14:17:49.602Z,13.10
2019-03-31T14:22:54.551Z,12.90
2019-03-31T14:27:59.322Z,12.90
2019-03-31T14:33:04.060Z,12.80
2019-03-31T14:38:09.108Z,12.70
2019-03-31T14:43:13.930Z,12.70
2019-03-31T14:48:18.901Z,12.50
2019-03-31T14:53:24.343Z,12.40
2019-03-31T14:58:29.046Z,12.50
2019-03-31T15:03:34.112Z,12.50
2019-03-31T15:08:53.502Z,12.60
2019-03-31T15:13:46.610Z,12.60
2019-03-31T15:18:51.347Z,12.50
2019-03-31T15:23:56.063Z,12.30
2019-03-31T15:29:00.815Z,11.80
2019-03-31T15:34:05.896Z,11.70
2019-03-31T15:39:11.418Z,11.70
2019-03-31T15:44:16.290Z,11.70
2019-03-31T15:49:21.025Z,11.80
2019-03-31T15:54:25.771Z,11.70
2019-03-31T15:59:30.908Z,11.50
2019-03-31T16:04:35.872Z,11.30
2019-03-31T16:09:40.917Z,11.20
2019-03-31T16:14:45.967Z,10.80
2019-03-31T16:19:50.712Z,10.70
2019-03-31T16:25:00.095Z,10.60
2019-03-31T16:30:07.270Z,10.50
2019-03-31T16:35:12.613Z,10.30
2019-03-31T16:40:17.433Z,10.00
2019-03-31T16:45:22.408Z,9.70
2019-03-31T16:50:27.453Z,9.40
2019-03-31T16:55:32.273Z,9.10
2019-03-31T17:00:37.262Z,8.70
2019-03-31T17:05:42.067Z,8.50
2019-03-31T17:10:47.034Z,8.30
2019-03-31T17:15:52.087Z,8.00
2019-03-31T17:20:56.937Z,7.80
2019-03-31T17:26:02.634Z,7.50
2019-03-31T17:31:07.544Z,7.30
2019-03-31T17:36:12.586Z,7.10
2019-03-31T17:41:17.334Z,7.00
2019-03-31T17:46:22.070Z,6.90
2019-03-31T17:51:26.787Z,6.60
2019-03-31T17:56:31.865Z,6.60
2019-03-31T18:01:36.910Z,6.40
2019-03-31T18:06:41.652Z,6.20
2019-03-31T18:11:46.703Z,6.10
2019-03-31T18:16:51.831Z,5.90
2019-03-31T18:21:56.634Z,5.70
2019-03-31T18:27:01.848Z,5.60
2019-03-31T18:32:06.907Z,5.40
2019-03-31T18:37:11.731Z,5.30
2019-03-31T18:42:16.599Z,5.30
2019-03-31T18:47:21.463Z,5.00
2019-03-31T18:52:26.251Z,4.80
2019-03-31T18:57:33.072Z,4.70
2019-03-31T19:02:51.503Z,4.60
2019-03-31T19:08:00.674Z,4.60
2019-03-31T19:13:22.319Z,4.50
2019-03-31T19:18:37.806Z,4.40
2019-03-31T19:23:56.422Z,4.30
2019-03-31T19:29:06.340Z,4.20
2019-03-31T19:34:28.974Z,4.00
2019-03-31T19:39:44.696Z,4.00
2019-03-31T19:44:51.282Z,4.00
2019-03-31T19:50:00.632Z,3.80
2019-03-31T19:55:10.373Z,3.80
2019-03-31T20:00:20.031Z,3.70
2019-03-31T20:05:38.821Z,3.70
2019-03-31T20:10:57.391Z,3.60
2019-03-31T20:16:12.883Z,3.50
2019-03-31T20:21:35.749Z,3.40
2019-03-31T20:26:42.336Z,3.30
2019-03-31T20:31:51.687Z,3.20
2019-03-31T20:37:01.034Z,3.40
2019-03-31T20:42:22.542Z,3.50
2019-03-31T20:47:27.412Z,3.50
2019-03-31T20:52:32.462Z,3.30
2019-03-31T20:57:37.511Z,3.20
2019-03-31T21:02:42.332Z,3.30
2019-03-31T21:07:47.301Z,3.10
2019-03-31T21:12:52.019Z,2.70
2019-03-31T21:17:57.093Z,2.40
2019-03-31T21:23:01.812Z,2.60
2019-03-31T21:28:06.655Z,2.70
2019-03-31T21:33:11.626Z,2.70
2019-03-31T21:38:16.446Z,2.70
2019-03-31T21:43:22.056Z,2.60
2019-03-31T21:48:26.752Z,2.50
2019-03-31T21:53:31.531Z,2.20
2019-03-31T21:58:36.259Z,2.30
2019-03-31T22:03:41.081Z,2.40
2019-03-31T22:08:45.828Z,2.50
2019-03-31T22:13:50.793Z,2.40
2019-03-31T22:18:55.611Z,2.10
2019-03-31T22:24:00.586Z,1.70
2019-03-31T22:29:05.358Z,1.70
2019-03-31T22:34:10.375Z,1.70
2019-03-31T22:39:15.219Z,1.50
2019-03-31T22:44:20.040Z,1.30
2019-03-31T22:49:24.910Z,1.30
2019-03-31T22:54:29.958Z,1.50
2019-03-31T22:59:34.676Z,1.50
2019-03-31T23:04:39.441Z,1.50
2019-03-31T23:09:44.493Z,1.50
2019-03-31T23:14:49.234Z,1.60
2019-03-31T23:19:54.282Z,1.50
2019-03-31T23:25:00.434Z,1.30
2019-03-31T23:30:08.355Z,1.00
2019-03-31T23:35:13.194Z,0.90
2019-03-31T23:40:18.165Z,0.90
2019-03-31T23:45:22.920Z,0.90
2019-03-31T23:50:28.264Z,0.70
2019-03-31T23:55:33.088Z,0.70
